KMGE 230956Z AUTO 00000KT 10SM CLR 16/14 A3012 RMK AO2 SLP192 T01600137 $